Time;durP1;ratioP1;P1;durP2;ratioP2;P2;SDS_P1;SDS_P2;PMS_P1;PMS_P2;Temp;Humidity;BMP_temperature;BMP_pressure;BME280_temperature;BME280_humidity;BME280_pressure;Samples;Min_cycle;Max_cycle;Signal;HPM_P1;HPM_P2
2021/12/13 00:00:27;;;;;;;0.40;0.30;;;2.20;1.40;;;2.71;100.00;96297.16;647940;212;31515;-74
2021/12/13 00:03:10;;;;;;;1.25;0.55;;;2.20;1.40;;;2.79;100.00;96291.97;646401;216;31536;-75
2021/12/13 00:05:56;;;;;;;0.50;0.37;;;2.30;1.40;;;2.83;100.00;96304.77;628330;220;32062;-74
2021/12/13 00:08:41;;;;;;;0.50;0.30;;;2.30;1.40;;;2.80;100.00;96303.96;647802;216;32029;-74
2021/12/13 00:11:23;;;;;;;1.20;0.80;;;2.40;1.40;;;2.86;100.00;96298.63;647965;216;32037;-75
2021/12/13 00:14:09;;;;;;;1.60;0.30;;;2.40;1.40;;;2.94;100.00;96295.58;646178;216;31512;-74
2021/12/13 00:16:51;;;;;;;0.60;0.30;;;2.50;1.40;;;2.94;100.00;96293.67;647697;212;32109;-75
2021/12/13 00:19:45;;;;;;;0.40;0.30;;;2.50;1.40;;;2.94;100.00;96286.22;618778;225;32387;-75
2021/12/13 00:22:26;;;;;;;0.70;0.40;;;2.50;1.40;;;2.91;100.00;96284.29;646357;212;31560;-75
2021/12/13 00:25:08;;;;;;;0.40;0.20;;;2.50;1.40;;;3.02;100.00;96285.77;619918;222;32148;-75
2021/12/13 00:27:51;;;;;;;0.60;0.30;;;2.50;1.40;;;3.06;100.00;96283.45;646896;216;31603;-75
2021/12/13 00:35:56;;;;;;;0.40;0.40;;;2.70;1.40;;;3.18;100.00;96288.75;646767;212;31544;-75
2021/12/13 00:38:41;;;;;;;1.00;0.90;;;2.70;1.40;;;3.24;100.00;96290.22;647682;216;31519;-75
2021/12/13 00:41:23;;;;;;;0.50;0.50;;;2.80;1.40;;;3.21;100.00;96293.64;618780;226;32375;-75
2021/12/13 00:46:39;;;;;;;0.40;0.30;;;2.70;1.40;;;3.14;100.00;96296.42;649436;216;31500;-75
2021/12/13 00:49:20;;;;;;;0.50;0.30;;;2.70;1.40;;;3.22;100.00;96302.55;646089;212;42243;-74
2021/12/13 00:52:05;;;;;;;0.40;0.23;;;2.60;1.40;;;3.25;100.00;96297.09;647751;216;31548;-75
2021/12/13 00:54:47;;;;;;;0.40;0.40;;;2.80;1.40;;;3.22;100.00;96298.38;647287;212;41933;-75
2021/12/13 00:57:37;;;;;;;0.57;0.43;;;2.70;1.40;;;3.10;100.00;96297.72;619084;226;31839;-74
2021/12/13 01:00:20;;;;;;;1.30;0.30;;;2.70;1.40;;;3.10;100.00;96296.16;645801;216;31732;-75
2021/12/13 01:03:07;;;;;;;0.40;0.40;;;2.60;1.40;;;3.11;100.00;96302.56;646569;212;31628;-75
2021/12/13 01:06:15;;;;;;;0.40;0.35;;;2.60;1.40;;;3.11;100.00;96300.00;638365;216;31682;-74
2021/12/13 01:09:22;;;;;;;2.10;0.60;;;2.50;1.40;;;3.02;100.00;96304.30;647810;212;31476;-75
2021/12/13 01:12:03;;;;;;;0.50;0.37;;;2.50;1.40;;;3.03;100.00;96303.03;647104;216;31600;-75
2021/12/13 01:15:02;;;;;;;0.40;0.30;;;2.40;1.40;;;3.00;100.00;96310.00;647467;216;31480;-75
2021/12/13 01:17:58;;;;;;;0.40;0.30;;;2.40;1.40;;;2.98;100.00;96314.99;647038;216;31483;-73
2021/12/13 01:20:55;;;;;;;0.60;0.40;;;2.40;1.40;;;3.03;100.00;96319.77;645748;216;31505;-75
2021/12/13 01:26:37;;;;;;;0.50;0.43;;;2.30;1.40;;;3.14;100.00;96320.25;647790;212;31495;-75
2021/12/13 01:29:17;;;;;;;0.50;0.30;;;2.40;1.40;;;3.03;100.00;96328.06;648669;212;32527;-75
2021/12/13 01:32:05;;;;;;;0.50;0.40;;;2.40;1.40;;;3.04;100.00;96329.95;652348;216;31490;-76
2021/12/13 01:36:01;;;;;;;0.63;0.63;;;2.40;1.40;;;3.00;100.00;96330.19;656513;212;24421;-75
2021/12/13 01:38:51;;;;;;;0.70;0.30;;;2.40;1.40;;;3.02;100.00;96332.69;621264;225;31769;-75
2021/12/13 01:41:44;;;;;;;0.40;0.20;;;2.50;1.40;;;3.10;100.00;96331.32;633365;217;31583;-75
2021/12/13 01:44:31;;;;;;;0.50;0.40;;;2.50;1.40;;;3.17;100.00;96334.01;646994;216;31537;-76
2021/12/13 01:49:53;;;;;;;0.47;0.30;;;2.30;1.40;;;3.06;100.00;96334.06;647329;216;31501;-74
2021/12/13 01:52:35;;;;;;;0.40;0.30;;;2.30;1.40;;;3.11;100.00;96339.31;646750;216;31494;-74
2021/12/13 01:55:22;;;;;;;0.60;0.40;;;2.30;1.40;;;3.04;100.00;96338.05;618516;222;31842;-74
2021/12/13 01:58:26;;;;;;;0.40;0.30;;;2.30;1.40;;;3.03;100.00;96337.22;647492;213;31533;-75
2021/12/13 02:03:54;;;;;;;0.60;0.60;;;2.20;1.40;;;2.92;100.00;96336.69;646989;216;31502;-75
2021/12/13 02:06:39;;;;;;;1.30;0.40;;;2.20;1.40;;;2.97;100.00;96330.47;634366;220;31658;-74
2021/12/13 02:09:22;;;;;;;0.40;0.20;;;2.20;1.40;;;2.97;100.00;96325.70;648003;216;31537;-74
2021/12/13 02:12:05;;;;;;;0.40;0.20;;;2.20;1.40;;;2.97;100.00;96324.69;619646;225;32194;-74
2021/12/13 02:14:49;;;;;;;0.90;0.40;;;2.20;1.40;;;2.98;100.00;96323.88;619185;222;31861;-74
2021/12/13 02:17:29;;;;;;;0.40;0.20;;;2.20;1.40;;;3.00;100.00;96324.98;646159;216;31498;-75
2021/12/13 02:20:15;;;;;;;0.40;0.20;;;2.20;1.40;;;2.94;100.00;96328.00;647074;216;31496;-75
2021/12/13 02:23:00;;;;;;;0.40;0.25;;;2.10;1.40;;;2.90;100.00;96331.12;619060;222;32009;-74
2021/12/13 02:25:42;;;;;;;0.40;0.20;;;2.10;1.40;;;2.84;100.00;96329.65;647183;216;31494;-74
2021/12/13 02:28:24;;;;;;;0.40;0.20;;;2.10;1.40;;;2.88;100.00;96333.11;648332;216;31649;-74
2021/12/13 02:31:19;;;;;;;0.40;0.20;;;2.10;1.40;;;2.86;100.00;96332.80;646280;212;31503;-73
2021/12/13 02:35:55;;;;;;;0.40;0.20;;;2.20;1.40;;;2.91;100.00;96329.42;647948;216;32074;-73
2021/12/13 02:38:36;;;;;;;;;;;2.20;1.40;;;2.85;100.00;96333.09;649276;214;24819;-75
2021/12/13 02:41:17;;;;;;;;;;;2.10;1.40;;;2.92;100.00;96326.34;649742;217;24946;-73
2021/12/13 02:44:04;;;;;;;;;;;2.20;1.40;;;2.84;100.00;96323.50;622206;226;24883;-74
2021/12/13 02:46:43;;;;;;;;;;;2.10;1.40;;;2.89;100.00;96324.69;654043;216;24800;-74
2021/12/13 02:49:25;;;;;;;;;;;2.20;1.40;;;2.86;100.00;96323.38;653625;216;24816;-72
2021/12/13 02:52:06;;;;;;;;;;;2.20;1.40;;;2.92;100.00;96326.13;653251;212;24852;-74
2021/12/13 02:54:47;;;;;;;;;;;2.20;1.40;;;2.90;100.00;96327.59;622335;226;24875;-75
2021/12/13 02:57:31;;;;;;;;;;;2.20;1.40;;;2.91;100.00;96330.28;653976;216;25922;-73
2021/12/13 03:00:15;;;;;;;;;;;2.10;1.40;;;2.92;100.00;96326.23;650197;216;24841;-74
2021/12/13 03:02:56;;;;;;;;;;;2.20;1.40;;;2.92;100.00;96331.75;653119;212;24854;-74
2021/12/13 03:05:37;;;;;;;;;;;2.20;1.40;;;2.93;100.00;96325.99;645886;216;24838;-74
2021/12/13 03:08:24;;;;;;;;;;;2.20;1.40;;;2.95;100.00;96329.42;653031;212;24841;-74
2021/12/13 03:11:05;;;;;;;;;;;2.20;1.40;;;2.98;100.00;96329.19;622610;226;24881;-75
2021/12/13 03:13:47;;;;;;;;;;;2.20;1.40;;;2.92;100.00;96327.84;653263;216;24736;-75
2021/12/13 03:16:29;;;;;;;;;;;2.20;1.40;;;2.98;100.00;96335.08;653077;216;25259;-74
2021/12/13 03:19:24;;;;;;;;;;;2.20;1.40;;;3.02;100.00;96328.67;606028;233;25544;-74
2021/12/13 03:22:13;;;;;;;;;;;2.30;1.40;;;3.08;100.00;96335.61;654760;212;24750;-74
2021/12/13 03:25:12;;;;;;;;;;;2.30;1.40;;;3.08;100.00;96334.48;651529;216;25429;-75
2021/12/13 03:28:03;;;;;;;;;;;2.30;1.40;;;3.09;100.00;96334.66;654309;216;24915;-75
2021/12/13 03:30:49;;;;;;;;;;;2.30;1.40;;;3.12;100.00;96335.48;654483;216;25219;-75
2021/12/13 03:35:52;;;;;;;;;;;2.30;1.40;;;3.15;100.00;96328.16;653470;212;24730;-75
2021/12/13 03:38:36;;;;;;;;;;;2.40;1.40;;;3.17;100.00;96328.32;654221;216;25328;-75
2021/12/13 03:41:18;;;;;;;;;;;2.40;1.40;;;3.15;100.00;96325.31;653989;216;24814;-73
2021/12/13 03:43:59;;;;;;;;;;;2.40;1.40;;;3.14;100.00;96329.16;653432;216;24846;-75
2021/12/13 03:46:43;;;;;;;;;;;2.30;1.40;;;3.19;100.00;96330.72;654444;216;24813;-75
2021/12/13 03:49:24;;;;;;;;;;;2.30;1.40;;;3.22;100.00;96327.05;653884;216;24832;-75
2021/12/13 03:52:09;;;;;;;;;;;2.30;1.40;;;3.17;100.00;96325.27;653921;212;24905;-75
2021/12/13 03:54:50;;;;;;;;;;;2.30;1.40;;;3.15;100.00;96325.53;653867;216;25295;-75
2021/12/13 03:57:31;;;;;;;;;;;2.30;1.40;;;3.19;100.00;96328.81;654364;216;24816;-75
2021/12/13 04:00:13;;;;;;;;;;;2.30;1.40;;;3.20;100.00;96329.79;655601;216;24892;-75
2021/12/13 04:02:54;;;;;;;;;;;2.30;1.40;;;3.16;100.00;96333.74;655291;212;24929;-75
2021/12/13 04:05:36;;;;;;;;;;;2.30;1.40;;;3.19;100.00;96336.69;645312;212;25243;-75
2021/12/13 04:08:17;;;;;;;;;;;2.40;1.40;;;3.23;100.00;96332.59;654378;212;25497;-74
2021/12/13 04:11:02;;;;;;;;;;;2.40;1.40;;;3.34;100.00;96336.92;655131;216;24723;-74
2021/12/13 04:13:44;;;;;;;;;;;2.50;1.40;;;3.28;100.00;96338.91;652344;212;25990;-75
2021/12/13 04:16:33;;;;;;;;;;;2.50;1.40;;;3.30;100.00;96335.36;623203;226;24784;-75
2021/12/13 04:19:10;;;;;;;;;;;2.50;1.40;;;3.33;100.00;96343.88;654406;216;24820;-75
2021/12/13 04:21:55;;;;;;;;;;;2.50;1.40;;;3.37;100.00;96338.89;653126;212;24818;-75
2021/12/13 04:24:39;;;;;;;;;;;2.60;1.40;;;3.36;100.00;96343.05;653170;216;24914;-73
2021/12/13 04:27:21;;;;;;;;;;;2.60;1.40;;;3.38;100.00;96352.59;655134;216;24810;-76
2021/12/13 04:30:06;;;;;;;;;;;2.60;1.40;;;3.36;100.00;96352.00;654589;216;24881;-73
2021/12/13 04:32:48;;;;;;;;;;;2.60;1.40;;;3.34;100.00;96354.14;653801;212;24837;-74
2021/12/13 04:35:51;;;;;;;;;;;2.60;1.40;;;3.40;100.00;96346.25;653018;212;25323;-75
2021/12/13 04:38:34;;;;;;;;;;;2.60;1.40;;;3.44;100.00;96347.28;648388;214;25932;-75
2021/12/13 04:41:22;;;;;;;;;;;2.70;1.40;;;3.45;100.00;96350.05;654140;212;25312;-74
2021/12/13 04:44:08;;;;;;;;;;;2.60;1.40;;;3.44;100.00;96349.02;654024;212;25352;-75
2021/12/13 04:46:48;;;;;;;;;;;2.70;1.40;;;3.46;100.00;96348.52;649851;214;25457;-76
2021/12/13 04:49:29;;;;;;;;;;;2.70;1.40;;;3.46;100.00;96353.28;653399;212;25855;-74
2021/12/13 04:52:10;;;;;;;;;;;2.70;1.40;;;3.40;100.00;96357.82;652798;216;25321;-73
2021/12/13 04:54:51;;;;;;;;;;;2.60;1.40;;;3.45;100.00;96355.84;655604;216;25324;-72
2021/12/13 04:57:36;;;;;;;;;;;2.60;1.40;;;3.47;100.00;96361.20;653672;216;26211;-74
2021/12/13 05:00:26;;;;;;;;;;;2.60;1.40;;;3.50;100.00;96359.95;629127;225;25342;-75
2021/12/13 05:03:12;;;;;;;;;;;2.70;1.40;;;3.53;100.00;96360.48;624830;224;25434;-74
2021/12/13 05:05:55;;;;;;;;;;;2.70;1.40;;;3.56;100.00;96365.80;645736;212;25361;-75
2021/12/13 05:08:36;;;;;;;;;;;2.70;1.40;;;3.56;100.00;96363.97;654305;212;25285;-72
2021/12/13 05:11:17;;;;;;;;;;;2.70;1.40;;;3.56;100.00;96366.92;653784;216;25315;-74
2021/12/13 05:13:59;;;;;;;;;;;2.70;1.40;;;3.47;100.00;96372.92;655366;216;25403;-75
2021/12/13 05:16:46;;;;;;;;;;;2.60;1.40;;;3.53;100.00;96372.78;653871;212;25321;-74
2021/12/13 05:19:30;;;;;;;;;;;2.70;1.40;;;3.59;100.00;96378.66;654370;216;25317;-75
2021/12/13 05:22:12;;;;;;;;;;;2.70;1.40;;;3.62;100.00;96379.47;654339;212;25752;-74
2021/12/13 05:24:55;;;;;;;;;;;2.80;1.40;;;3.71;100.00;96381.74;650014;216;25876;-73
2021/12/13 05:27:37;;;;;;;;;;;2.80;1.40;;;3.70;100.00;96385.48;654926;212;25325;-74
2021/12/13 05:30:18;;;;;;;;;;;2.80;1.40;;;3.73;100.00;96388.73;652434;213;26767;-75
2021/12/13 05:32:59;;;;;;;;;;;2.90;1.40;;;3.82;100.00;96385.00;653667;216;25504;-76
2021/12/13 05:35:50;;;;;;;;;;;2.80;1.40;;;3.76;100.00;96383.33;653842;212;25267;-75
2021/12/13 05:38:33;;;;;;;;;;;2.80;1.40;;;3.69;100.00;96385.25;654448;212;24894;-73
2021/12/13 05:41:22;;;;;;;;;;;2.80;1.40;;;3.70;100.00;96385.69;654249;212;24846;-73
2021/12/13 05:44:04;;;;;;;;;;;2.80;1.40;;;3.70;100.00;96380.97;653819;212;24758;-74
2021/12/13 05:46:49;;;;;;;;;;;2.80;1.40;;;3.68;100.00;96382.43;621622;226;24900;-75
2021/12/13 05:49:33;;;;;;;;;;;2.80;1.40;;;3.77;100.00;96385.39;653759;212;24837;-74
2021/12/13 05:52:13;;;;;;;;;;;2.80;1.40;;;3.81;100.00;96390.33;653712;212;24778;-73
2021/12/13 05:54:56;;;;;;;;;;;2.80;1.40;;;3.86;100.00;96385.51;652816;213;24823;-73
2021/12/13 05:57:36;;;;;;;;;;;2.80;1.40;;;3.77;100.00;96390.52;653559;216;24841;-75
2021/12/13 06:00:20;;;;;;;;;;;2.80;1.40;;;3.81;100.00;96394.47;655042;216;24946;-73
2021/12/13 06:03:10;;;;;;;;;;;2.80;1.40;;;3.82;100.00;96396.78;652872;212;24823;-73
2021/12/13 06:05:52;;;;;;;;;;;2.80;1.40;;;3.76;100.00;96389.38;643498;216;24888;-75
2021/12/13 06:08:32;;;;;;;;;;;2.80;1.40;;;3.76;100.00;96391.09;653251;216;24916;-73
2021/12/13 06:11:17;;;;;;;;;;;2.80;1.40;;;3.73;100.00;96389.58;654328;216;24834;-75
2021/12/13 06:14:01;;;;;;;;;;;2.80;1.40;;;3.68;100.00;96392.78;653060;212;24752;-75
2021/12/13 06:16:44;;;;;;;;;;;2.80;1.40;;;3.72;100.00;96392.20;652931;212;24720;-75
2021/12/13 06:19:30;;;;;;;;;;;2.90;1.40;;;3.77;100.00;96385.66;654557;212;24814;-74
2021/12/13 06:22:11;;;;;;;;;;;3.00;1.40;;;3.78;100.00;96382.88;653227;212;24865;-75
2021/12/13 06:25:00;;;;;;;;;;;3.00;1.40;;;3.72;100.00;96392.20;653569;212;24840;-75
2021/12/13 06:27:43;;;;;;;;;;;2.90;1.40;;;3.72;100.00;96386.52;654495;212;25175;-75
2021/12/13 06:30:25;;;;;;;;;;;2.90;1.40;;;3.67;100.00;96394.70;649990;214;24816;-74
2021/12/13 06:35:57;;;;;;;0.80;0.80;;;2.80;1.40;;;3.84;100.00;96395.98;619562;222;31854;-74
2021/12/13 06:38:42;;;;;;;1.20;1.00;;;2.80;1.40;;;3.86;100.00;96400.84;645912;216;31476;-75
2021/12/13 06:41:37;;;;;;;;;;;2.90;1.40;;;3.82;100.00;96397.33;654109;216;25739;-75
2021/12/13 06:44:25;;;;;;;;;;;2.90;1.40;;;3.90;100.00;96407.29;649425;214;25427;-75
2021/12/13 06:47:07;;;;;;;;;;;2.90;1.40;;;3.86;100.00;96416.34;648784;216;25304;-75
2021/12/13 06:49:52;;;;;;;;;;;2.90;1.40;;;3.98;100.00;96421.97;654451;212;24818;-72
2021/12/13 06:52:32;;;;;;;;;;;3.00;1.40;;;4.01;100.00;96418.16;653256;212;25271;-75
2021/12/13 06:55:14;;;;;;;;;;;3.00;1.40;;;3.93;100.00;96420.47;653596;216;24747;-76
2021/12/13 06:58:00;;;;;;;;;;;2.90;1.40;;;3.87;100.00;96422.31;653858;216;24809;-75
2021/12/13 07:00:37;;;;;;;;;;;2.90;1.40;;;3.84;100.00;96422.41;653220;212;26360;-75
2021/12/13 07:03:21;;;;;;;;;;;2.90;1.40;;;3.88;100.00;96432.20;650283;216;24834;-75
2021/12/13 07:06:03;;;;;;;;;;;3.00;1.40;;;3.79;100.00;96431.82;648581;216;24854;-74
2021/12/13 07:09:13;;;;;;;;;;;2.90;1.40;;;3.82;100.00;96434.34;653289;216;24828;-75
2021/12/13 07:11:54;;;;;;;;;;;2.90;1.40;;;3.79;100.00;96438.94;654175;212;24824;-76
2021/12/13 07:14:37;;;;;;;;;;;2.90;1.40;;;3.90;100.00;96445.61;654755;216;26037;-76
2021/12/13 07:17:27;;;;;;;;;;;2.90;1.40;;;4.01;100.00;96450.52;652920;212;24769;-75
2021/12/13 07:20:13;;;;;;;;;;;3.00;1.40;;;4.08;100.00;96450.88;648874;215;25261;-76
2021/12/13 07:22:56;;;;;;;;;;;3.00;1.40;;;4.21;100.00;96450.93;653710;212;24912;-75
2021/12/13 07:25:37;;;;;;;;;;;3.10;1.40;;;4.25;100.00;96452.95;652377;216;24832;-75
2021/12/13 07:28:29;;;;;;;;;;;3.10;1.40;;;4.24;100.00;96450.84;648876;216;25592;-75
2021/12/13 07:31:10;;;;;;;;;;;3.10;1.40;;;4.28;100.00;96451.86;654426;212;24833;-76
2021/12/13 07:35:53;;;;;;;0.60;0.60;;;3.20;1.40;;;4.16;100.00;96457.61;645984;216;31519;-75
2021/12/13 07:38:33;;;;;;;1.30;1.20;;;3.10;1.40;;;4.16;100.00;96457.38;619986;222;31864;-74
2021/12/13 07:41:13;;;;;;;;;;;3.10;1.40;;;4.16;100.00;96456.16;653050;212;25028;-76
2021/12/13 07:43:56;;;;;;;;;;;3.10;1.40;;;4.16;100.00;96464.42;627098;225;25587;-76
2021/12/13 07:46:38;;;;;;;;;;;3.10;1.40;;;4.25;100.00;96471.56;653510;216;25057;-75
2021/12/13 07:49:18;;;;;;;;;;;3.10;1.40;;;4.31;100.00;96467.42;653361;212;25131;-74
2021/12/13 07:52:00;;;;;;;;;;;3.20;1.40;;;4.34;100.00;96469.52;652858;212;24861;-76
2021/12/13 07:54:41;;;;;;;;;;;3.20;1.40;;;4.38;100.00;96472.16;652546;216;25030;-74
2021/12/13 07:57:23;;;;;;;;;;;3.30;1.40;;;4.44;100.00;96467.02;654197;212;25369;-75
2021/12/13 08:00:09;;;;;;;;;;;3.40;1.40;;;4.57;100.00;96468.30;654434;212;24917;-74
2021/12/13 08:02:53;;;;;;;;;;;3.40;1.40;;;4.60;100.00;96472.05;648291;217;25001;-76
2021/12/13 08:05:38;;;;;;;;;;;3.40;1.40;;;4.62;100.00;96473.92;647068;212;24875;-76
2021/12/13 08:08:19;;;;;;;;;;;3.50;1.40;;;4.54;100.00;96474.04;622251;226;24914;-76
2021/12/13 08:11:00;;;;;;;;;;;3.50;1.40;;;4.67;100.00;96474.41;621972;226;24898;-75
2021/12/13 08:13:41;;;;;;;;;;;3.60;1.40;;;4.66;100.00;96471.00;653380;213;25394;-75
2021/12/13 08:16:38;;;;;;;;;;;3.50;1.40;;;4.74;100.00;96472.50;648749;217;25262;-74
2021/12/13 08:19:23;;;;;;;;;;;3.60;1.40;;;4.72;100.00;96468.97;654051;216;24947;-75
2021/12/13 08:22:04;;;;;;;;;;;3.60;1.40;;;4.83;100.00;96475.60;653840;216;24907;-75
2021/12/13 08:24:49;;;;;;;;;;;3.60;1.40;;;4.67;100.00;96476.03;647266;215;24873;-74
2021/12/13 08:27:32;;;;;;;;;;;3.60;1.40;;;4.70;100.00;96479.99;655552;212;25722;-73
2021/12/13 08:30:13;;;;;;;;;;;3.60;1.40;;;4.80;100.00;96477.48;653983;212;24821;-74
2021/12/13 08:35:53;;;;;;;;;;;3.80;1.40;;;4.84;100.00;96476.61;653944;216;24836;-76
2021/12/13 08:38:37;;;;;;;;;;;3.80;1.40;;;4.84;100.00;96480.86;654137;212;24731;-75
2021/12/13 08:41:31;;;;;;;;;;;3.80;1.40;;;4.92;100.00;96482.59;652740;212;24816;-76
2021/12/13 08:44:15;;;;;;;;;;;3.90;1.40;;;4.90;100.00;96484.45;651933;216;24819;-76
2021/12/13 08:46:57;;;;;;;;;;;3.80;1.40;;;4.98;100.00;96489.42;647949;214;24943;-75
2021/12/13 08:49:55;;;;;;;;;;;3.90;1.40;;;5.04;100.00;96487.46;649352;214;24884;-76
2021/12/13 08:52:37;;;;;;;;;;;4.00;1.40;;;5.06;100.00;96489.86;648759;214;24765;-76
2021/12/13 08:55:28;;;;;;;;;;;4.00;1.40;;;5.29;100.00;96490.78;653991;216;25406;-76
2021/12/13 08:58:12;;;;;;;;;;;4.30;1.40;;;5.58;100.00;96493.86;648699;215;24839;-75
2021/12/13 09:00:53;;;;;;;;;;;4.40;1.40;;;5.49;100.00;96493.10;653523;216;24862;-74
2021/12/13 09:03:42;;;;;;;;;;;4.30;1.40;;;5.48;100.00;96496.16;622613;224;24873;-74
2021/12/13 09:06:25;;;;;;;;;;;4.20;1.40;;;5.41;100.00;96498.05;652887;216;25510;-76
2021/12/13 09:09:06;;;;;;;;;;;4.30;1.40;;;5.41;100.00;96493.31;649094;215;25107;-76
2021/12/13 09:11:51;;;;;;;;;;;4.20;1.40;;;5.31;100.00;96497.11;653719;212;24804;-76
2021/12/13 09:14:31;;;;;;;;;;;4.10;1.40;;;5.22;100.00;96499.17;652500;212;25480;-76
2021/12/13 09:17:11;;;;;;;;;;;4.10;1.40;;;5.20;100.00;96500.28;652626;216;24812;-75
2021/12/13 09:19:53;;;;;;;;;;;4.20;1.40;;;5.35;100.00;96500.49;654167;212;24732;-75
2021/12/13 09:22:34;;;;;;;;;;;4.30;1.40;;;5.27;100.00;96507.47;653185;212;24840;-76
2021/12/13 09:25:16;;;;;;;;;;;4.30;1.40;;;5.29;100.00;96500.80;653794;212;24724;-76
2021/12/13 09:28:01;;;;;;;;;;;4.30;1.40;;;5.34;100.00;96503.06;652729;212;24818;-74
2021/12/13 09:30:45;;;;;;;;;;;4.40;1.40;;;5.61;100.00;96499.82;654789;216;24838;-76
2021/12/13 09:35:54;;;;;;;;;;;4.70;1.40;;;5.78;100.00;96501.32;653523;216;24876;-75
2021/12/13 09:39:01;;;;;;;;;;;4.90;1.40;;;5.95;100.00;96500.00;652994;216;24819;-76
2021/12/13 09:41:43;;;;;;;;;;;4.90;1.40;;;5.82;100.00;96502.18;653625;216;24833;-76
2021/12/13 09:44:30;;;;;;;;;;;4.80;1.40;;;5.73;100.00;96491.44;653361;212;25323;-75
2021/12/13 09:47:13;;;;;;;;;;;4.70;1.40;;;5.64;100.00;96487.76;652128;216;24837;-75
2021/12/13 09:50:04;;;;;;;;;;;4.70;1.40;;;5.55;100.00;96491.05;654609;212;24829;-76
2021/12/13 09:52:48;;;;;;;;;;;4.70;1.40;;;5.71;100.00;96494.09;654275;216;24841;-75
2021/12/13 09:55:36;;;;;;;;;;;4.80;1.40;;;5.65;100.00;96493.80;654307;216;24713;-75
2021/12/13 09:58:24;;;;;;;;;;;4.80;1.40;;;5.67;100.00;96494.04;652656;216;25776;-75
2021/12/13 10:01:06;;;;;;;;;;;4.80;1.40;;;5.86;100.00;96488.56;653875;212;24891;-75
2021/12/13 10:03:51;;;;;;;;;;;4.90;1.40;;;6.02;100.00;96486.63;622652;227;24903;-76
2021/12/13 10:06:43;;;;;;;;;;;5.10;1.40;;;6.28;100.00;96482.66;642342;212;24842;-77
2021/12/13 10:09:24;;;;;;;;;;;5.20;1.40;;;6.61;100.00;96474.13;653965;212;24830;-77
2021/12/13 10:12:19;;;;;;;;;;;5.50;1.40;;;6.51;100.00;96468.70;653324;216;24797;-76
2021/12/13 10:14:59;;;;;;;;;;;5.50;1.40;;;6.49;100.00;96464.61;653311;212;24842;-76
2021/12/13 10:17:40;;;;;;;;;;;5.40;1.40;;;6.31;100.00;96471.28;653224;212;24807;-76
2021/12/13 10:20:22;;;;;;;;;;;5.10;1.40;;;6.24;100.00;96463.13;654326;212;24729;-76
2021/12/13 10:23:04;;;;;;;;;;;5.10;1.40;;;6.08;100.00;96462.27;652829;212;24933;-74
2021/12/13 10:25:45;;;;;;;;;;;5.20;1.40;;;6.28;100.00;96461.83;622639;224;24870;-75
2021/12/13 10:28:27;;;;;;;;;;;5.30;1.40;;;6.10;100.00;96459.16;653201;216;25021;-76
2021/12/13 10:31:08;;;;;;;;;;;5.10;1.40;;;6.45;100.00;96459.66;653318;212;24826;-76
2021/12/13 10:35:53;;;;;;;3.45;1.80;;;5.70;1.40;;;7.09;100.00;96461.02;647885;212;31605;-75
2021/12/13 10:38:45;;;;;;;3.30;1.20;;;5.80;1.40;;;6.79;100.00;96458.77;619528;226;31864;-75
2021/12/13 10:41:30;;;;;;;;;;;5.50;1.40;;;6.64;100.00;96456.76;653871;216;24832;-75
2021/12/13 10:44:12;;;;;;;;;;;5.30;1.40;;;6.68;100.00;96453.40;652371;212;24898;-77
2021/12/13 10:46:54;;;;;;;;;;;5.30;1.40;;;6.46;100.00;96447.39;653925;212;24751;-75
2021/12/13 10:49:35;;;;;;;;;;;5.10;1.40;;;6.22;100.00;96451.25;649339;215;24904;-75
2021/12/13 10:52:20;;;;;;;;;;;4.80;1.40;;;6.00;100.00;96440.14;654956;216;24722;-75
2021/12/13 10:55:01;;;;;;;;;;;4.80;1.40;;;6.16;100.00;96441.44;653914;212;24910;-75
2021/12/13 10:57:44;;;;;;;;;;;4.90;1.40;;;6.33;100.00;96441.55;653343;216;24722;-74
2021/12/13 11:00:31;;;;;;;;;;;5.00;1.40;;;6.42;100.00;96442.66;653231;216;25583;-74
2021/12/13 11:03:12;;;;;;;;;;;5.20;1.40;;;6.45;100.00;96440.33;653568;216;24954;-75
2021/12/13 11:05:53;;;;;;;;;;;5.20;1.40;;;6.71;100.00;96441.13;645259;216;24843;-75
2021/12/13 11:08:41;;;;;;;;;;;5.30;1.40;;;6.87;100.00;96445.78;654220;212;24823;-75
2021/12/13 11:11:20;;;;;;;;;;;5.40;1.40;;;6.95;100.00;96450.36;653236;212;24838;-75
2021/12/13 11:13:59;;;;;;;;;;;5.50;1.40;;;6.95;100.00;96447.98;654364;216;24917;-76
2021/12/13 11:16:41;;;;;;;;;;;5.30;1.40;;;7.21;100.00;96440.02;649120;216;25328;-74
2021/12/13 11:19:22;;;;;;;;;;;5.50;1.40;;;6.89;100.00;96440.28;653176;216;25249;-74
2021/12/13 11:22:10;;;;;;;;;;;5.20;1.40;;;6.78;100.00;96437.73;652843;212;24729;-75
2021/12/13 11:24:51;;;;;;;;;;;5.10;1.40;;;6.71;100.00;96433.25;653720;212;24815;-75
2021/12/13 11:27:33;;;;;;;;;;;5.10;1.40;;;6.92;100.00;96437.23;649385;217;24784;-75
2021/12/13 11:30:14;;;;;;;;;;;5.20;1.40;;;6.63;100.00;96436.87;653325;216;24867;-75
2021/12/13 11:35:59;;;;;;;;;;;4.90;1.40;;;6.36;100.00;96429.47;653118;212;24819;-77
2021/12/13 11:38:51;;;;;;;;;;;4.90;1.40;;;6.44;100.00;96427.60;653286;216;25048;-74
2021/12/13 11:42:09;;;;;;;;;;;4.90;1.40;;;6.46;100.00;96426.59;653097;216;24817;-76
2021/12/13 11:44:51;;;;;;;;;;;5.00;1.40;;;6.56;100.00;96419.66;649802;215;25266;-76
2021/12/13 11:47:37;;;;;;;;;;;5.00;1.40;;;6.74;100.00;96415.59;648295;217;25761;-76
2021/12/13 11:50:19;;;;;;;;;;;5.10;1.40;;;6.84;100.00;96415.73;653794;216;24814;-75
2021/12/13 11:53:15;;;;;;;;;;;5.20;1.40;;;6.80;100.00;96409.08;653905;212;24905;-75
2021/12/13 11:56:05;;;;;;;;;;;5.10;1.40;;;6.81;100.00;96408.33;653849;216;25023;-74
2021/12/13 11:59:01;;;;;;;;;;;5.20;1.40;;;7.25;100.00;96405.27;653090;216;24833;-75
2021/12/13 12:01:48;;;;;;;;;;;5.40;1.40;;;7.39;100.00;96408.78;652585;212;24809;-75
2021/12/13 12:04:41;;;;;;;;;;;5.60;1.40;;;7.48;100.00;96399.36;648323;217;25415;-76
2021/12/13 12:07:27;;;;;;;;;;;5.50;1.40;;;7.30;100.00;96402.63;653974;212;25368;-75
2021/12/13 12:10:21;;;;;;;;;;;5.70;1.40;;;7.63;100.00;96392.30;654251;216;24826;-77
2021/12/13 12:13:31;;;;;;;;;;;5.80;1.40;;;7.60;100.00;96389.71;653372;212;24906;-76
2021/12/13 12:16:15;;;;;;;;;;;5.60;1.40;;;7.35;100.00;96378.00;656035;216;25299;-76
2021/12/13 12:18:56;;;;;;;;;;;5.60;1.40;;;7.47;100.00;96373.95;652510;212;24755;-76
2021/12/13 12:21:41;;;;;;;;;;;5.70;1.40;;;7.24;100.00;96368.80;653866;212;24921;-77
2021/12/13 12:24:23;;;;;;;;;;;5.50;1.40;;;7.44;100.00;96369.83;652666;212;24832;-77
2021/12/13 12:27:08;;;;;;;;;;;5.80;1.40;;;7.43;100.00;96371.63;654310;214;25287;-75
2021/12/13 12:29:52;;;;;;;;;;;5.90;1.40;;;8.58;100.00;96375.67;654424;216;24754;-76
2021/12/13 12:32:37;;;;;;;;;;;6.60;1.40;;;8.09;100.00;96373.95;654331;216;24815;-76
2021/12/13 12:35:51;;;;;;;2.20;1.52;;;6.00;1.40;;;7.51;100.00;96373.80;636741;217;31786;-76
2021/12/13 12:41:35;;;;;;;1.00;0.50;;;5.70;1.40;;;7.23;100.00;96376.28;646941;212;42069;-76
2021/12/13 12:44:19;;;;;;;0.50;0.40;;;5.50;1.40;;;7.24;100.00;96378.72;647078;212;31516;-76
2021/12/13 12:47:00;;;;;;;1.00;1.00;;;5.60;1.40;;;7.43;100.00;96382.26;647168;216;31692;-77
2021/12/13 12:49:42;;;;;;;0.90;0.80;;;5.70;1.40;;;7.57;100.00;96383.81;618863;226;31885;-75
2021/12/13 12:52:26;;;;;;;0.70;0.50;;;5.80;1.40;;;7.37;100.00;96384.33;646632;212;31505;-75
2021/12/13 12:55:12;;;;;;;1.10;0.90;;;5.60;1.40;;;7.10;100.00;96390.22;646271;216;31865;-77
2021/12/13 12:57:57;;;;;;;1.17;0.80;;;5.50;1.40;;;7.16;100.00;96387.52;647507;216;42693;-75
2021/12/13 13:00:38;;;;;;;0.80;0.80;;;5.50;1.40;;;7.01;100.00;96383.61;645980;212;32085;-76
2021/12/13 13:03:24;;;;;;;0.90;0.60;;;5.50;1.40;;;6.70;100.00;96389.53;647403;216;31501;-76
2021/12/13 13:06:09;;;;;;;1.90;0.73;;;5.30;1.40;;;6.67;100.00;96390.13;636819;216;31774;-76
2021/12/13 13:08:51;;;;;;;0.83;0.70;;;5.30;1.40;;;6.72;100.00;96394.63;647061;216;31536;-75
2021/12/13 13:11:35;;;;;;;1.70;1.13;;;5.40;1.40;;;6.73;100.00;96396.46;647131;216;31771;-76
2021/12/13 13:14:15;;;;;;;0.70;0.40;;;5.20;1.40;;;6.81;100.00;96397.92;615860;227;31887;-75
2021/12/13 13:16:59;;;;;;;0.50;0.43;;;5.10;1.40;;;6.64;100.00;96401.15;646635;212;31482;-77